sensor_id;sensor_type;location;lat;lon;timestamp;temperature;humidity
5697;DHT22;2873;50.966;7.210;2023-12-04T00:00:21;0.80;99.90
5697;DHT22;2873;50.966;7.210;2023-12-04T00:02:47;0.80;99.90
5697;DHT22;2873;50.966;7.210;2023-12-04T00:05:12;0.90;99.90
5697;DHT22;2873;50.966;7.210;2023-12-04T00:07:37;0.80;99.90
5697;DHT22;2873;50.966;7.210;2023-12-04T00:10:03;0.70;99.90
5697;DHT22;2873;50.966;7.210;2023-12-04T00:12:29;0.70;99.90
5697;DHT22;2873;50.966;7.210;2023-12-04T00:14:54;0.70;99.90
5697;DHT22;2873;50.966;7.210;2023-12-04T00:17:20;0.70;99.90
5697;DHT22;2873;50.966;7.210;2023-12-04T00:19:45;0.70;99.90
5697;DHT22;2873;50.966;7.210;2023-12-04T00:22:11;0.70;99.90
5697;DHT22;2873;50.966;7.210;2023-12-04T00:24:36;0.80;99.90
5697;DHT22;2873;50.966;7.210;2023-12-04T00:27:02;0.80;99.90
5697;DHT22;2873;50.966;7.210;2023-12-04T00:29:27;0.70;99.90
5697;DHT22;2873;50.966;7.210;2023-12-04T00:31:52;0.80;99.90
5697;DHT22;2873;50.966;7.210;2023-12-04T00:34:18;0.80;99.90
5697;DHT22;2873;50.966;7.210;2023-12-04T00:36:43;0.80;99.90
5697;DHT22;2873;50.966;7.210;2023-12-04T00:39:09;0.80;99.90
5697;DHT22;2873;50.966;7.210;2023-12-04T00:41:34;0.80;99.90
5697;DHT22;2873;50.966;7.210;2023-12-04T00:44:00;0.70;99.90
5697;DHT22;2873;50.966;7.210;2023-12-04T00:46:25;0.80;99.90
5697;DHT22;2873;50.966;7.210;2023-12-04T00:48:51;0.90;99.90
5697;DHT22;2873;50.966;7.210;2023-12-04T00:51:16;0.80;99.90
5697;DHT22;2873;50.966;7.210;2023-12-04T00:53:42;0.80;99.90
5697;DHT22;2873;50.966;7.210;2023-12-04T00:56:07;0.80;99.90
5697;DHT22;2873;50.966;7.210;2023-12-04T00:58:33;0.90;99.90
5697;DHT22;2873;50.966;7.210;2023-12-04T01:00:58;0.80;99.90
5697;DHT22;2873;50.966;7.210;2023-12-04T01:03:24;0.80;99.90
5697;DHT22;2873;50.966;7.210;2023-12-04T01:05:51;0.80;99.90
5697;DHT22;2873;50.966;7.210;2023-12-04T01:08:17;0.80;99.90
5697;DHT22;2873;50.966;7.210;2023-12-04T01:10:43;0.70;99.90
5697;DHT22;2873;50.966;7.210;2023-12-04T01:13:08;0.70;99.90
5697;DHT22;2873;50.966;7.210;2023-12-04T01:15:34;0.80;99.90
5697;DHT22;2873;50.966;7.210;2023-12-04T01:17:59;0.80;99.90
5697;DHT22;2873;50.966;7.210;2023-12-04T01:20:26;0.80;99.90
5697;DHT22;2873;50.966;7.210;2023-12-04T01:22:51;0.80;99.90
5697;DHT22;2873;50.966;7.210;2023-12-04T01:25:17;0.80;99.90
5697;DHT22;2873;50.966;7.210;2023-12-04T01:27:42;0.60;99.90
5697;DHT22;2873;50.966;7.210;2023-12-04T01:30:08;0.70;99.90
5697;DHT22;2873;50.966;7.210;2023-12-04T01:32:36;0.80;99.90
5697;DHT22;2873;50.966;7.210;2023-12-04T01:35:02;0.70;99.90
5697;DHT22;2873;50.966;7.210;2023-12-04T01:37:27;0.70;99.90
5697;DHT22;2873;50.966;7.210;2023-12-04T01:39:53;0.80;99.90
5697;DHT22;2873;50.966;7.210;2023-12-04T01:42:18;0.70;99.90
5697;DHT22;2873;50.966;7.210;2023-12-04T01:44:44;0.70;99.90
5697;DHT22;2873;50.966;7.210;2023-12-04T01:47:09;0.70;99.90
5697;DHT22;2873;50.966;7.210;2023-12-04T01:49:35;0.70;99.90
5697;DHT22;2873;50.966;7.210;2023-12-04T01:52:01;0.70;99.90
5697;DHT22;2873;50.966;7.210;2023-12-04T01:54:26;0.70;99.90
5697;DHT22;2873;50.966;7.210;2023-12-04T01:56:52;0.70;99.90
5697;DHT22;2873;50.966;7.210;2023-12-04T01:59:17;0.70;99.90
5697;DHT22;2873;50.966;7.210;2023-12-04T02:01:43;0.90;99.90
5697;DHT22;2873;50.966;7.210;2023-12-04T02:04:09;0.70;99.90
5697;DHT22;2873;50.966;7.210;2023-12-04T02:06:34;0.70;99.90
5697;DHT22;2873;50.966;7.210;2023-12-04T02:09:00;0.80;99.90
5697;DHT22;2873;50.966;7.210;2023-12-04T02:11:26;0.70;99.90
5697;DHT22;2873;50.966;7.210;2023-12-04T02:13:52;0.80;99.90
5697;DHT22;2873;50.966;7.210;2023-12-04T02:16:17;0.70;99.90
5697;DHT22;2873;50.966;7.210;2023-12-04T02:18:44;0.60;99.90
5697;DHT22;2873;50.966;7.210;2023-12-04T02:21:09;0.70;99.90
5697;DHT22;2873;50.966;7.210;2023-12-04T02:23:35;0.70;99.90
5697;DHT22;2873;50.966;7.210;2023-12-04T02:26:01;0.70;99.90
5697;DHT22;2873;50.966;7.210;2023-12-04T02:28:30;0.70;99.90
5697;DHT22;2873;50.966;7.210;2023-12-04T02:30:56;0.70;99.90
5697;DHT22;2873;50.966;7.210;2023-12-04T02:33:22;0.80;99.90
5697;DHT22;2873;50.966;7.210;2023-12-04T02:35:49;0.70;99.90
5697;DHT22;2873;50.966;7.210;2023-12-04T02:38:15;0.80;99.90
5697;DHT22;2873;50.966;7.210;2023-12-04T02:40:41;0.80;99.90
5697;DHT22;2873;50.966;7.210;2023-12-04T02:43:06;0.80;99.90
5697;DHT22;2873;50.966;7.210;2023-12-04T02:45:32;0.90;99.90
5697;DHT22;2873;50.966;7.210;2023-12-04T02:47:57;1.00;99.90
5697;DHT22;2873;50.966;7.210;2023-12-04T02:50:23;0.90;99.90
5697;DHT22;2873;50.966;7.210;2023-12-04T02:52:48;0.90;99.90
5697;DHT22;2873;50.966;7.210;2023-12-04T02:55:14;0.80;99.90
5697;DHT22;2873;50.966;7.210;2023-12-04T02:57:39;0.80;99.90
5697;DHT22;2873;50.966;7.210;2023-12-04T03:00:05;0.80;99.90
5697;DHT22;2873;50.966;7.210;2023-12-04T03:02:31;0.80;99.90
5697;DHT22;2873;50.966;7.210;2023-12-04T03:04:57;0.80;99.90
5697;DHT22;2873;50.966;7.210;2023-12-04T03:07:22;0.90;99.90
5697;DHT22;2873;50.966;7.210;2023-12-04T03:09:49;1.00;99.90
5697;DHT22;2873;50.966;7.210;2023-12-04T03:12:15;1.00;99.90
5697;DHT22;2873;50.966;7.210;2023-12-04T03:14:40;1.00;99.90
5697;DHT22;2873;50.966;7.210;2023-12-04T03:17:06;1.00;99.90
5697;DHT22;2873;50.966;7.210;2023-12-04T03:19:31;1.00;99.90
5697;DHT22;2873;50.966;7.210;2023-12-04T03:21:57;1.00;99.90
5697;DHT22;2873;50.966;7.210;2023-12-04T03:24:22;0.90;99.90
5697;DHT22;2873;50.966;7.210;2023-12-04T03:26:47;0.90;99.90
5697;DHT22;2873;50.966;7.210;2023-12-04T03:29:13;0.90;99.90
5697;DHT22;2873;50.966;7.210;2023-12-04T03:31:38;0.90;99.90
5697;DHT22;2873;50.966;7.210;2023-12-04T03:34:04;0.90;99.90
5697;DHT22;2873;50.966;7.210;2023-12-04T03:36:29;0.80;99.90
5697;DHT22;2873;50.966;7.210;2023-12-04T03:38:55;0.90;99.90
5697;DHT22;2873;50.966;7.210;2023-12-04T03:41:20;0.90;99.90
5697;DHT22;2873;50.966;7.210;2023-12-04T03:43:47;0.80;99.90
5697;DHT22;2873;50.966;7.210;2023-12-04T03:46:12;0.80;99.90
5697;DHT22;2873;50.966;7.210;2023-12-04T03:48:38;0.80;99.90
5697;DHT22;2873;50.966;7.210;2023-12-04T03:51:04;0.80;99.90
5697;DHT22;2873;50.966;7.210;2023-12-04T03:53:30;0.80;99.90
5697;DHT22;2873;50.966;7.210;2023-12-04T03:55:57;0.80;99.90
5697;DHT22;2873;50.966;7.210;2023-12-04T03:58:23;0.80;99.90
5697;DHT22;2873;50.966;7.210;2023-12-04T04:00:48;0.80;99.90
5697;DHT22;2873;50.966;7.210;2023-12-04T04:03:14;0.80;99.90
5697;DHT22;2873;50.966;7.210;2023-12-04T04:05:39;0.80;99.90
5697;DHT22;2873;50.966;7.210;2023-12-04T04:08:05;0.80;99.90
5697;DHT22;2873;50.966;7.210;2023-12-04T04:10:32;0.80;99.90
5697;DHT22;2873;50.966;7.210;2023-12-04T04:12:58;0.90;99.90
5697;DHT22;2873;50.966;7.210;2023-12-04T04:15:23;0.80;99.90
5697;DHT22;2873;50.966;7.210;2023-12-04T04:17:49;0.80;99.90
5697;DHT22;2873;50.966;7.210;2023-12-04T04:20:14;0.70;99.90
5697;DHT22;2873;50.966;7.210;2023-12-04T04:22:40;0.70;99.90
5697;DHT22;2873;50.966;7.210;2023-12-04T04:25:06;0.80;99.90
5697;DHT22;2873;50.966;7.210;2023-12-04T04:27:31;0.80;99.90
5697;DHT22;2873;50.966;7.210;2023-12-04T04:29:57;0.80;99.90
5697;DHT22;2873;50.966;7.210;2023-12-04T04:32:22;0.80;99.90
5697;DHT22;2873;50.966;7.210;2023-12-04T04:34:48;0.80;99.90
5697;DHT22;2873;50.966;7.210;2023-12-04T04:37:13;0.80;99.90
5697;DHT22;2873;50.966;7.210;2023-12-04T04:39:42;0.80;99.90
5697;DHT22;2873;50.966;7.210;2023-12-04T04:42:07;0.70;99.90
5697;DHT22;2873;50.966;7.210;2023-12-04T04:44:33;0.80;99.90
5697;DHT22;2873;50.966;7.210;2023-12-04T04:46:58;0.80;99.90
5697;DHT22;2873;50.966;7.210;2023-12-04T04:49:24;0.80;99.90
5697;DHT22;2873;50.966;7.210;2023-12-04T04:51:49;0.80;99.90
5697;DHT22;2873;50.966;7.210;2023-12-04T04:54:15;0.90;99.90
5697;DHT22;2873;50.966;7.210;2023-12-04T04:56:40;1.00;99.90
5697;DHT22;2873;50.966;7.210;2023-12-04T04:59:06;0.70;99.90
5697;DHT22;2873;50.966;7.210;2023-12-04T05:01:31;0.80;99.90
5697;DHT22;2873;50.966;7.210;2023-12-04T05:03:57;0.70;99.90
5697;DHT22;2873;50.966;7.210;2023-12-04T05:06:22;0.70;99.90
5697;DHT22;2873;50.966;7.210;2023-12-04T05:08:48;0.90;99.90
5697;DHT22;2873;50.966;7.210;2023-12-04T05:11:16;0.70;99.90
5697;DHT22;2873;50.966;7.210;2023-12-04T05:13:41;0.70;99.90
5697;DHT22;2873;50.966;7.210;2023-12-04T05:16:07;0.70;99.90
5697;DHT22;2873;50.966;7.210;2023-12-04T05:18:32;0.70;99.90
5697;DHT22;2873;50.966;7.210;2023-12-04T05:20:58;0.70;99.90
5697;DHT22;2873;50.966;7.210;2023-12-04T05:23:23;0.70;99.90
5697;DHT22;2873;50.966;7.210;2023-12-04T05:25:49;0.70;99.90
5697;DHT22;2873;50.966;7.210;2023-12-04T05:28:14;0.60;99.90
5697;DHT22;2873;50.966;7.210;2023-12-04T05:30:40;0.60;99.90
5697;DHT22;2873;50.966;7.210;2023-12-04T05:33:05;0.70;99.90
5697;DHT22;2873;50.966;7.210;2023-12-04T05:35:31;0.70;99.90
5697;DHT22;2873;50.966;7.210;2023-12-04T05:37:59;0.60;99.90
5697;DHT22;2873;50.966;7.210;2023-12-04T05:40:25;0.70;99.90
5697;DHT22;2873;50.966;7.210;2023-12-04T05:42:50;0.60;99.90
5697;DHT22;2873;50.966;7.210;2023-12-04T05:45:15;0.60;99.90
5697;DHT22;2873;50.966;7.210;2023-12-04T05:47:41;0.70;99.90
5697;DHT22;2873;50.966;7.210;2023-12-04T05:50:06;0.60;99.90
5697;DHT22;2873;50.966;7.210;2023-12-04T05:52:32;0.70;99.90
5697;DHT22;2873;50.966;7.210;2023-12-04T05:54:58;0.70;99.90
5697;DHT22;2873;50.966;7.210;2023-12-04T05:57:23;0.60;99.90
5697;DHT22;2873;50.966;7.210;2023-12-04T05:59:48;0.80;99.90
5697;DHT22;2873;50.966;7.210;2023-12-04T06:02:14;0.60;99.90
5697;DHT22;2873;50.966;7.210;2023-12-04T06:04:40;0.60;99.90
5697;DHT22;2873;50.966;7.210;2023-12-04T06:07:06;0.70;99.90
5697;DHT22;2873;50.966;7.210;2023-12-04T06:09:32;0.70;99.90
5697;DHT22;2873;50.966;7.210;2023-12-04T06:11:57;0.60;99.90
5697;DHT22;2873;50.966;7.210;2023-12-04T06:14:23;0.60;99.90
5697;DHT22;2873;50.966;7.210;2023-12-04T06:16:48;0.70;99.90
5697;DHT22;2873;50.966;7.210;2023-12-04T06:19:14;0.60;99.90
5697;DHT22;2873;50.966;7.210;2023-12-04T06:21:40;0.60;99.90
5697;DHT22;2873;50.966;7.210;2023-12-04T06:24:05;0.60;99.90
5697;DHT22;2873;50.966;7.210;2023-12-04T06:26:31;0.60;99.90
5697;DHT22;2873;50.966;7.210;2023-12-04T06:28:57;0.70;99.90
5697;DHT22;2873;50.966;7.210;2023-12-04T06:31:23;0.70;99.90
5697;DHT22;2873;50.966;7.210;2023-12-04T06:33:48;0.80;99.90
5697;DHT22;2873;50.966;7.210;2023-12-04T06:36:14;0.80;99.90
5697;DHT22;2873;50.966;7.210;2023-12-04T06:38:40;0.70;99.90
5697;DHT22;2873;50.966;7.210;2023-12-04T06:41:06;0.80;99.90
5697;DHT22;2873;50.966;7.210;2023-12-04T06:43:32;0.80;99.90
5697;DHT22;2873;50.966;7.210;2023-12-04T06:45:58;0.90;99.90
5697;DHT22;2873;50.966;7.210;2023-12-04T06:48:24;0.60;99.90
5697;DHT22;2873;50.966;7.210;2023-12-04T06:50:49;0.80;99.90
5697;DHT22;2873;50.966;7.210;2023-12-04T06:53:15;0.80;99.90
5697;DHT22;2873;50.966;7.210;2023-12-04T06:55:40;0.70;99.90
5697;DHT22;2873;50.966;7.210;2023-12-04T06:58:06;0.80;99.90
5697;DHT22;2873;50.966;7.210;2023-12-04T07:00:32;0.70;99.90
5697;DHT22;2873;50.966;7.210;2023-12-04T07:02:57;0.80;99.90
5697;DHT22;2873;50.966;7.210;2023-12-04T07:05:23;0.90;99.90
5697;DHT22;2873;50.966;7.210;2023-12-04T07:07:48;1.00;99.90
5697;DHT22;2873;50.966;7.210;2023-12-04T07:10:14;0.80;99.90
5697;DHT22;2873;50.966;7.210;2023-12-04T07:12:43;0.90;99.90
5697;DHT22;2873;50.966;7.210;2023-12-04T07:15:09;0.80;99.90
5697;DHT22;2873;50.966;7.210;2023-12-04T07:17:36;0.90;99.90
5697;DHT22;2873;50.966;7.210;2023-12-04T07:20:01;0.80;99.90
5697;DHT22;2873;50.966;7.210;2023-12-04T07:22:27;0.80;99.90
5697;DHT22;2873;50.966;7.210;2023-12-04T07:24:53;0.80;99.90
5697;DHT22;2873;50.966;7.210;2023-12-04T07:27:18;0.90;99.90
5697;DHT22;2873;50.966;7.210;2023-12-04T07:29:43;0.80;99.90
5697;DHT22;2873;50.966;7.210;2023-12-04T07:32:09;0.80;99.90
5697;DHT22;2873;50.966;7.210;2023-12-04T07:34:34;0.80;99.90
5697;DHT22;2873;50.966;7.210;2023-12-04T07:37:00;0.80;99.90
5697;DHT22;2873;50.966;7.210;2023-12-04T07:39:25;0.90;99.90
5697;DHT22;2873;50.966;7.210;2023-12-04T07:41:51;1.00;99.90
5697;DHT22;2873;50.966;7.210;2023-12-04T07:44:16;0.90;99.90
5697;DHT22;2873;50.966;7.210;2023-12-04T07:46:42;1.10;99.90
5697;DHT22;2873;50.966;7.210;2023-12-04T07:49:07;1.00;99.90
5697;DHT22;2873;50.966;7.210;2023-12-04T07:51:33;0.90;99.90
5697;DHT22;2873;50.966;7.210;2023-12-04T07:53:58;1.00;99.90
5697;DHT22;2873;50.966;7.210;2023-12-04T07:56:24;1.00;99.90
5697;DHT22;2873;50.966;7.210;2023-12-04T07:58:49;1.00;99.90
5697;DHT22;2873;50.966;7.210;2023-12-04T08:01:15;1.10;99.90
5697;DHT22;2873;50.966;7.210;2023-12-04T08:03:41;1.10;99.90
5697;DHT22;2873;50.966;7.210;2023-12-04T08:06:06;1.00;99.90
5697;DHT22;2873;50.966;7.210;2023-12-04T08:08:32;1.20;99.90
5697;DHT22;2873;50.966;7.210;2023-12-04T08:10:58;1.20;99.90
5697;DHT22;2873;50.966;7.210;2023-12-04T08:13:23;1.10;99.90
5697;DHT22;2873;50.966;7.210;2023-12-04T08:15:49;1.20;99.90
5697;DHT22;2873;50.966;7.210;2023-12-04T08:18:14;1.30;99.90
5697;DHT22;2873;50.966;7.210;2023-12-04T08:20:40;1.20;99.90
5697;DHT22;2873;50.966;7.210;2023-12-04T08:23:05;1.20;99.90
5697;DHT22;2873;50.966;7.210;2023-12-04T08:25:31;1.10;99.90
5697;DHT22;2873;50.966;7.210;2023-12-04T08:27:58;1.10;99.90
5697;DHT22;2873;50.966;7.210;2023-12-04T08:30:23;1.00;99.90
5697;DHT22;2873;50.966;7.210;2023-12-04T08:32:49;1.10;99.90
5697;DHT22;2873;50.966;7.210;2023-12-04T08:35:14;1.10;99.90
5697;DHT22;2873;50.966;7.210;2023-12-04T08:37:40;1.10;99.90
5697;DHT22;2873;50.966;7.210;2023-12-04T08:40:06;1.20;99.90
5697;DHT22;2873;50.966;7.210;2023-12-04T08:42:33;1.20;99.90
5697;DHT22;2873;50.966;7.210;2023-12-04T08:44:59;1.30;99.90
5697;DHT22;2873;50.966;7.210;2023-12-04T08:47:24;1.30;99.90
5697;DHT22;2873;50.966;7.210;2023-12-04T08:49:50;1.40;99.90
5697;DHT22;2873;50.966;7.210;2023-12-04T08:52:15;1.50;99.90
5697;DHT22;2873;50.966;7.210;2023-12-04T08:54:41;1.40;99.90
5697;DHT22;2873;50.966;7.210;2023-12-04T08:57:07;1.40;99.90
5697;DHT22;2873;50.966;7.210;2023-12-04T08:59:33;1.60;99.90
5697;DHT22;2873;50.966;7.210;2023-12-04T09:01:58;1.50;99.90
5697;DHT22;2873;50.966;7.210;2023-12-04T09:04:24;1.60;99.90
5697;DHT22;2873;50.966;7.210;2023-12-04T09:06:49;1.40;99.90
5697;DHT22;2873;50.966;7.210;2023-12-04T09:09:15;1.40;99.90
5697;DHT22;2873;50.966;7.210;2023-12-04T09:11:42;1.40;99.90
5697;DHT22;2873;50.966;7.210;2023-12-04T09:14:07;1.20;99.90
5697;DHT22;2873;50.966;7.210;2023-12-04T09:16:33;1.20;99.90
5697;DHT22;2873;50.966;7.210;2023-12-04T09:18:58;1.30;99.90
5697;DHT22;2873;50.966;7.210;2023-12-04T09:21:24;1.30;99.90
5697;DHT22;2873;50.966;7.210;2023-12-04T09:23:49;1.40;99.90
5697;DHT22;2873;50.966;7.210;2023-12-04T09:26:15;1.50;99.90
5697;DHT22;2873;50.966;7.210;2023-12-04T09:28:41;1.40;99.90
5697;DHT22;2873;50.966;7.210;2023-12-04T09:31:08;1.50;99.90
5697;DHT22;2873;50.966;7.210;2023-12-04T09:33:33;1.50;99.90
5697;DHT22;2873;50.966;7.210;2023-12-04T09:35:58;1.40;99.90
5697;DHT22;2873;50.966;7.210;2023-12-04T09:38:24;1.50;99.90
5697;DHT22;2873;50.966;7.210;2023-12-04T09:40:50;1.50;99.90
5697;DHT22;2873;50.966;7.210;2023-12-04T09:43:17;1.50;99.90
5697;DHT22;2873;50.966;7.210;2023-12-04T09:45:43;1.50;99.90
5697;DHT22;2873;50.966;7.210;2023-12-04T09:48:08;1.50;99.90
5697;DHT22;2873;50.966;7.210;2023-12-04T09:50:35;1.50;99.90
5697;DHT22;2873;50.966;7.210;2023-12-04T09:53:00;1.60;99.90
5697;DHT22;2873;50.966;7.210;2023-12-04T09:55:27;1.60;99.90
5697;DHT22;2873;50.966;7.210;2023-12-04T09:57:53;1.70;99.90
5697;DHT22;2873;50.966;7.210;2023-12-04T10:00:20;1.70;99.90
5697;DHT22;2873;50.966;7.210;2023-12-04T10:02:47;1.70;99.90
5697;DHT22;2873;50.966;7.210;2023-12-04T10:05:12;1.60;99.90
5697;DHT22;2873;50.966;7.210;2023-12-04T10:07:38;1.60;99.90
5697;DHT22;2873;50.966;7.210;2023-12-04T10:10:04;1.70;99.90
5697;DHT22;2873;50.966;7.210;2023-12-04T10:12:31;1.70;99.90
5697;DHT22;2873;50.966;7.210;2023-12-04T10:15:02;1.70;99.90
5697;DHT22;2873;50.966;7.210;2023-12-04T10:17:28;1.70;99.90
5697;DHT22;2873;50.966;7.210;2023-12-04T10:20:04;1.80;99.90
5697;DHT22;2873;50.966;7.210;2023-12-04T10:22:36;1.70;99.90
5697;DHT22;2873;50.966;7.210;2023-12-04T10:25:13;1.80;99.90
5697;DHT22;2873;50.966;7.210;2023-12-04T10:27:38;1.80;99.90
5697;DHT22;2873;50.966;7.210;2023-12-04T10:30:04;1.90;99.90
5697;DHT22;2873;50.966;7.210;2023-12-04T10:32:35;1.80;99.90
5697;DHT22;2873;50.966;7.210;2023-12-04T10:35:01;1.90;99.90
5697;DHT22;2873;50.966;7.210;2023-12-04T10:37:28;1.90;99.90
5697;DHT22;2873;50.966;7.210;2023-12-04T10:39:54;1.90;99.90
5697;DHT22;2873;50.966;7.210;2023-12-04T10:42:26;1.90;99.90
5697;DHT22;2873;50.966;7.210;2023-12-04T10:44:52;2.10;99.90
5697;DHT22;2873;50.966;7.210;2023-12-04T10:47:19;2.00;99.90
5697;DHT22;2873;50.966;7.210;2023-12-04T10:49:47;2.10;99.90
5697;DHT22;2873;50.966;7.210;2023-12-04T10:52:14;2.10;99.90
5697;DHT22;2873;50.966;7.210;2023-12-04T10:54:40;2.20;99.90
5697;DHT22;2873;50.966;7.210;2023-12-04T10:57:05;2.00;99.90
5697;DHT22;2873;50.966;7.210;2023-12-04T10:59:32;1.70;99.90
5697;DHT22;2873;50.966;7.210;2023-12-04T11:02:01;1.90;99.90
5697;DHT22;2873;50.966;7.210;2023-12-04T11:04:30;2.00;99.90
5697;DHT22;2873;50.966;7.210;2023-12-04T11:06:57;1.90;99.90
5697;DHT22;2873;50.966;7.210;2023-12-04T11:09:24;2.10;99.90
5697;DHT22;2873;50.966;7.210;2023-12-04T11:11:53;2.00;99.90
5697;DHT22;2873;50.966;7.210;2023-12-04T11:14:20;2.00;99.90
5697;DHT22;2873;50.966;7.210;2023-12-04T11:16:51;2.00;99.90
5697;DHT22;2873;50.966;7.210;2023-12-04T11:19:31;2.00;99.90
5697;DHT22;2873;50.966;7.210;2023-12-04T11:22:00;2.10;99.90
5697;DHT22;2873;50.966;7.210;2023-12-04T11:24:27;2.00;99.90
5697;DHT22;2873;50.966;7.210;2023-12-04T11:26:53;2.00;99.90
5697;DHT22;2873;50.966;7.210;2023-12-04T11:29:19;2.00;99.90
5697;DHT22;2873;50.966;7.210;2023-12-04T11:31:45;2.20;99.90
5697;DHT22;2873;50.966;7.210;2023-12-04T11:34:11;2.00;99.90
5697;DHT22;2873;50.966;7.210;2023-12-04T11:36:37;2.10;99.90
5697;DHT22;2873;50.966;7.210;2023-12-04T11:39:03;2.10;99.90
5697;DHT22;2873;50.966;7.210;2023-12-04T11:41:29;2.10;99.90
5697;DHT22;2873;50.966;7.210;2023-12-04T11:43:55;2.10;99.90
5697;DHT22;2873;50.966;7.210;2023-12-04T11:46:21;2.10;99.90
5697;DHT22;2873;50.966;7.210;2023-12-04T11:48:48;2.10;99.90
5697;DHT22;2873;50.966;7.210;2023-12-04T11:53:58;2.20;99.90
5697;DHT22;2873;50.966;7.210;2023-12-04T11:56:24;2.20;99.90
5697;DHT22;2873;50.966;7.210;2023-12-04T11:58:49;2.20;99.90
5697;DHT22;2873;50.966;7.210;2023-12-04T12:01:17;2.10;99.90
5697;DHT22;2873;50.966;7.210;2023-12-04T12:03:42;2.20;99.90
5697;DHT22;2873;50.966;7.210;2023-12-04T12:06:07;2.10;99.90
5697;DHT22;2873;50.966;7.210;2023-12-04T12:08:33;2.10;99.90
5697;DHT22;2873;50.966;7.210;2023-12-04T12:10:59;2.00;99.90
5697;DHT22;2873;50.966;7.210;2023-12-04T12:13:24;2.00;99.90
5697;DHT22;2873;50.966;7.210;2023-12-04T12:15:51;2.00;99.90
5697;DHT22;2873;50.966;7.210;2023-12-04T12:18:17;1.90;99.90
5697;DHT22;2873;50.966;7.210;2023-12-04T12:20:43;1.90;99.90
5697;DHT22;2873;50.966;7.210;2023-12-04T12:23:08;1.80;99.90
5697;DHT22;2873;50.966;7.210;2023-12-04T12:25:34;1.90;99.90
5697;DHT22;2873;50.966;7.210;2023-12-04T12:28:03;1.90;99.90
5697;DHT22;2873;50.966;7.210;2023-12-04T12:30:29;2.00;99.90
5697;DHT22;2873;50.966;7.210;2023-12-04T12:32:54;2.00;99.90
5697;DHT22;2873;50.966;7.210;2023-12-04T12:35:20;2.10;99.90
5697;DHT22;2873;50.966;7.210;2023-12-04T12:37:45;2.00;99.90
5697;DHT22;2873;50.966;7.210;2023-12-04T12:40:11;2.00;99.90
5697;DHT22;2873;50.966;7.210;2023-12-04T12:42:37;1.90;99.90
5697;DHT22;2873;50.966;7.210;2023-12-04T12:45:07;1.80;99.90
5697;DHT22;2873;50.966;7.210;2023-12-04T12:47:35;1.80;99.90
5697;DHT22;2873;50.966;7.210;2023-12-04T12:50:01;1.70;99.90
5697;DHT22;2873;50.966;7.210;2023-12-04T12:52:27;1.90;99.90
5697;DHT22;2873;50.966;7.210;2023-12-04T12:54:52;1.80;99.90
5697;DHT22;2873;50.966;7.210;2023-12-04T12:57:18;1.70;99.90
5697;DHT22;2873;50.966;7.210;2023-12-04T12:59:43;1.80;99.90
5697;DHT22;2873;50.966;7.210;2023-12-04T13:02:09;1.90;99.90
5697;DHT22;2873;50.966;7.210;2023-12-04T13:04:36;1.90;99.90
5697;DHT22;2873;50.966;7.210;2023-12-04T13:07:02;1.80;99.90
5697;DHT22;2873;50.966;7.210;2023-12-04T13:09:28;1.70;99.90
5697;DHT22;2873;50.966;7.210;2023-12-04T13:11:54;1.80;99.90
5697;DHT22;2873;50.966;7.210;2023-12-04T13:14:20;2.00;99.90
5697;DHT22;2873;50.966;7.210;2023-12-04T13:16:45;1.90;99.90
5697;DHT22;2873;50.966;7.210;2023-12-04T13:19:11;1.90;99.90
5697;DHT22;2873;50.966;7.210;2023-12-04T13:21:37;2.00;99.90
5697;DHT22;2873;50.966;7.210;2023-12-04T13:24:03;2.00;99.90
5697;DHT22;2873;50.966;7.210;2023-12-04T13:26:32;2.00;99.90
5697;DHT22;2873;50.966;7.210;2023-12-04T13:28:58;1.90;99.90
5697;DHT22;2873;50.966;7.210;2023-12-04T13:31:24;1.90;99.90
5697;DHT22;2873;50.966;7.210;2023-12-04T13:33:50;2.00;99.90
5697;DHT22;2873;50.966;7.210;2023-12-04T13:36:15;1.90;99.90
5697;DHT22;2873;50.966;7.210;2023-12-04T13:38:40;2.00;99.90
5697;DHT22;2873;50.966;7.210;2023-12-04T13:41:06;2.10;99.90
5697;DHT22;2873;50.966;7.210;2023-12-04T13:43:54;2.00;99.90
5697;DHT22;2873;50.966;7.210;2023-12-04T13:46:21;2.10;99.90
5697;DHT22;2873;50.966;7.210;2023-12-04T13:48:46;1.90;99.90
5697;DHT22;2873;50.966;7.210;2023-12-04T13:51:12;2.00;99.90
5697;DHT22;2873;50.966;7.210;2023-12-04T13:53:38;1.80;99.90
5697;DHT22;2873;50.966;7.210;2023-12-04T13:56:09;1.90;99.90
5697;DHT22;2873;50.966;7.210;2023-12-04T13:58:47;1.80;99.90
5697;DHT22;2873;50.966;7.210;2023-12-04T14:01:15;1.90;99.90
5697;DHT22;2873;50.966;7.210;2023-12-04T14:03:43;1.80;99.90
5697;DHT22;2873;50.966;7.210;2023-12-04T14:06:09;1.80;99.90
5697;DHT22;2873;50.966;7.210;2023-12-04T14:08:35;1.90;99.90
5697;DHT22;2873;50.966;7.210;2023-12-04T14:11:01;2.00;99.90
5697;DHT22;2873;50.966;7.210;2023-12-04T14:13:27;1.80;99.90
5697;DHT22;2873;50.966;7.210;2023-12-04T14:15:52;2.00;99.90
5697;DHT22;2873;50.966;7.210;2023-12-04T14:18:18;1.90;99.90
5697;DHT22;2873;50.966;7.210;2023-12-04T14:20:44;1.80;99.90
5697;DHT22;2873;50.966;7.210;2023-12-04T14:23:09;1.70;99.90
5697;DHT22;2873;50.966;7.210;2023-12-04T14:25:34;1.70;99.90
5697;DHT22;2873;50.966;7.210;2023-12-04T14:28:00;1.60;99.90
5697;DHT22;2873;50.966;7.210;2023-12-04T14:30:26;1.60;99.90
5697;DHT22;2873;50.966;7.210;2023-12-04T14:32:52;1.70;99.90
5697;DHT22;2873;50.966;7.210;2023-12-04T14:35:18;1.60;99.90
5697;DHT22;2873;50.966;7.210;2023-12-04T14:37:43;1.60;99.90
5697;DHT22;2873;50.966;7.210;2023-12-04T14:40:12;1.60;99.90
5697;DHT22;2873;50.966;7.210;2023-12-04T14:42:37;1.60;99.90
5697;DHT22;2873;50.966;7.210;2023-12-04T14:45:03;1.80;99.90
5697;DHT22;2873;50.966;7.210;2023-12-04T14:47:28;1.70;99.90
5697;DHT22;2873;50.966;7.210;2023-12-04T14:49:54;1.80;99.90
5697;DHT22;2873;50.966;7.210;2023-12-04T14:52:20;1.80;99.90
5697;DHT22;2873;50.966;7.210;2023-12-04T14:54:47;1.90;99.90
5697;DHT22;2873;50.966;7.210;2023-12-04T14:57:31;1.90;99.90
5697;DHT22;2873;50.966;7.210;2023-12-04T15:00:06;2.10;99.90
5697;DHT22;2873;50.966;7.210;2023-12-04T15:02:35;2.00;99.90
5697;DHT22;2873;50.966;7.210;2023-12-04T15:05:34;2.00;99.90
5697;DHT22;2873;50.966;7.210;2023-12-04T15:08:25;1.90;99.90
5697;DHT22;2873;50.966;7.210;2023-12-04T15:11:09;1.90;99.90
5697;DHT22;2873;50.966;7.210;2023-12-04T15:14:01;1.90;99.90
5697;DHT22;2873;50.966;7.210;2023-12-04T15:16:32;1.90;99.90
5697;DHT22;2873;50.966;7.210;2023-12-04T15:19:06;1.80;99.90
5697;DHT22;2873;50.966;7.210;2023-12-04T15:21:32;1.80;99.90
5697;DHT22;2873;50.966;7.210;2023-12-04T15:23:58;1.90;99.90
5697;DHT22;2873;50.966;7.210;2023-12-04T15:26:24;1.80;99.90
5697;DHT22;2873;50.966;7.210;2023-12-04T15:28:49;1.80;99.90
5697;DHT22;2873;50.966;7.210;2023-12-04T15:31:15;1.70;99.90
5697;DHT22;2873;50.966;7.210;2023-12-04T15:33:40;1.70;99.90
5697;DHT22;2873;50.966;7.210;2023-12-04T15:36:06;1.60;99.90
5697;DHT22;2873;50.966;7.210;2023-12-04T15:38:34;1.60;99.90
5697;DHT22;2873;50.966;7.210;2023-12-04T15:40:59;1.60;99.90
5697;DHT22;2873;50.966;7.210;2023-12-04T15:43:25;1.70;99.90
5697;DHT22;2873;50.966;7.210;2023-12-04T15:45:50;1.80;99.90
5697;DHT22;2873;50.966;7.210;2023-12-04T15:48:16;1.70;99.90
5697;DHT22;2873;50.966;7.210;2023-12-04T15:50:41;1.70;99.90
5697;DHT22;2873;50.966;7.210;2023-12-04T15:53:08;1.90;99.90
5697;DHT22;2873;50.966;7.210;2023-12-04T15:55:33;1.70;99.90
5697;DHT22;2873;50.966;7.210;2023-12-04T15:57:59;1.70;99.90
5697;DHT22;2873;50.966;7.210;2023-12-04T16:00:24;1.70;99.90
5697;DHT22;2873;50.966;7.210;2023-12-04T16:02:50;1.60;99.90
5697;DHT22;2873;50.966;7.210;2023-12-04T16:05:16;1.70;99.90
5697;DHT22;2873;50.966;7.210;2023-12-04T16:07:42;1.70;99.90
5697;DHT22;2873;50.966;7.210;2023-12-04T16:10:08;1.80;99.90
5697;DHT22;2873;50.966;7.210;2023-12-04T16:12:34;1.80;99.90